Klik op de webcam foto voor een grotere versieKlik op de webcam foto voor een grotere versie
Of klik hier voor
de webcam video


Weerstation
Wilsele-Leuven:Website of another weatherstation

Weerstation
Wilsele-Putkapel:Website of another weatherstation



Nabijgelegen vliegvelden - METAR rapporten

   
EBBR - Vaartkom-Leuven
Gewijzigd: 15-05-2021 00:50
Nevel, Grotendeels bewolkt    Wind: NW 9 km/h
Nevel, Grotendeels bewolkt
Wind: Wind: NW 9 km/h
Temperatuur: 9°C
Voelt als: 8°C
Dauwpunt: 8°C
Vochtigheid: 94%
Barometer: 1008 hPa
Bewolking: Grotendeels bewolkt
Zicht: 5 km
Bewolking: Gedeeltelijk bewolkt 182.9 m,
Grotendeels bewolkt 396.2 m
EBBR 142250Z 31005KT 5000 BR SCT006 BKN013 09/08 Q1008 TEMPO 3000 BR BKN005
EBAW - Antwerp
Gewijzigd: 15-05-2021 00:50
Bewolking    Wind: WNW 9 km/h
Bewolking
Wind: Wind: WNW 9 km/h
Temperatuur: 10°C
Voelt als: 9°C
Dauwpunt: 8°C
Vochtigheid: 88%
Barometer: 1008 hPa
Bewolking: Bewolking
Zicht: 9 km
Bewolking: Bewolking 304.8 m
EBAW 142250Z AUTO 29005KT 9000 // OVC010/// 10/08 Q1008
EBLG - Liège
Gewijzigd: 15-05-2021 00:50
Licht bewolkt    Wind: Zuiden 11 km/h<br />Gust to 11 km/h
Licht bewolkt
Wind: Wind: Zuiden 11 km/h
Gust to 11 km/h
Temperatuur: 9°C
Voelt als: 7°C
Dauwpunt: 7°C
Vochtigheid: 87%
Barometer: 1008 hPa
Bewolking: Licht bewolkt
Zicht: meer dan 10 km
Bewolking: Licht bewolkt 1402.1 m
EBLG 142250Z 19006G17KT 150V220 9999 FEW046 09/07 Q1008 NOSIG
EBCV - Mons/Bergen
Gewijzigd: 15-05-2021 00:55
Grotendeels bewolkt    Wind: WNW 6 km/h
Grotendeels bewolkt
Wind: Wind: WNW 6 km/h
Temperatuur: 9°C
Voelt als: 8°C
Dauwpunt: 9°C
Vochtigheid: 100%
Barometer: 1008 hPa
Bewolking: Grotendeels bewolkt
Zicht: 5 km
Bewolking: Grotendeels bewolkt 274.3 m,
Grotendeels bewolkt 2011.7 m
EBCV 142255Z AUTO 30003KT 5000 BKN009/// BKN066/// 09/09 Q1008 GRN
EHBK - Maastricht
Gewijzigd: 15-05-2021 00:55
Gedeeltelijk bewolkt    Wind: Zuiden 9 km/h
Gedeeltelijk bewolkt
Wind: Wind: Zuiden 9 km/h
Temperatuur: 8°C
Voelt als: 7°C
Dauwpunt: 7°C
Vochtigheid: 93%
Barometer: 1008 hPa
Bewolking: Gedeeltelijk bewolkt
Zicht: meer dan 10 km
Bewolking: Gedeeltelijk bewolkt 1127.8 m,
Gedeeltelijk bewolkt 1493.5 m
EHBK 142255Z AUTO 17005KT 9999 SCT037 SCT049 08/07 Q1008
ELLX - Luxemburg
Gewijzigd: 15-05-2021 00:50
Kleine buien, Regen, Grotendeels bewolkt    Wind: ZZW 13 km/h
Kleine buien, Regen, Grotendeels bewolkt
Wind: Wind: ZZW 13 km/h
Temperatuur: 8°C
Voelt als: 6°C
Dauwpunt: 7°C
Vochtigheid: 93%
Barometer: 1009 hPa
Bewolking: Grotendeels bewolkt
Zicht: meer dan 10 km
Bewolking: Gedeeltelijk bewolkt 365.8 m,
Grotendeels bewolkt 1402.1 m
ELLX 142250Z 20007KT 9999 -SHRA SCT012TCU BKN046 08/07 Q1009 TEMPO 4000 SHRA SCT013CB
EBOS - Oostende
Gewijzigd: 15-05-2021 00:50
Gedeeltelijk bewolkt    Wind: ZW 4 km/h
Gedeeltelijk bewolkt
Wind: Wind: ZW 4 km/h
Temperatuur: 9°C
Dauwpunt: 6°C
Vochtigheid: 82%
Barometer: 1008 hPa
Bewolking: Gedeeltelijk bewolkt
Zicht: meer dan 10 km
Bewolking: Gedeeltelijk bewolkt 579.1 m
EBOS 142250Z 23002KT 9999 SCT019 09/06 Q1008 NOSIG
  

Script ontwikkeld door  Saratoga-weather.org Aangepast voor de template door  Weerstation Leuven

U vindt ons ook hier:

ambientweather.net/

UK Metoffice

WeatherCloud

European Weather Network

Weather Underground

Bernelux Weather Network

AWEKAS

WeatherlinkIP

Citizen Weather Observer Program (CWOP)

HAMweather, WeatherForYou, PWS Weather

Apparatuur in gebruik:

Weer-station
Davis VUE

Weer-programma
Meteobridge

Weer-computer
Nano-SD

Webleverancier
Robohost

Davis VUE

Meteobridge

Nano-SD

Robohost